Pacific Palisades, California
Current Conditions -  °F | °C
As of 10:51 AM on Saturday 20 Dec 2014 (Local Time) from KSMO Reporting Station
Clear Clear  
Wind Chill: 62°   Ceiling: Unl
Heat Index: 62°   Visibility: 10mi
Dew Point: 48°   Wind: 3mph
Humidity: 60%   Direction: 70°ENE
Pressure: 30.19"   Gusts: NA
Location:  34.05°N, 118.53°W
Report Text: KSMO 201851Z 07003KT 10SM CLR 17/09 A3019 RMK AO2 SLP223 T01670089
Loading
Personal Weather Stations






























Interactive Weather Map New forecast layout! Learn more

10-Day Weather Forecast

Advertisements
Track Severe Weather on mobile